My Meet Scores
Natalie Malover, Wilmette Gymnastics - MyMeetScores.com
Top100 | Top Teams | Upcoming Meets | Completed Meets | Latest | Add Scores | Help| Support | Bookmark and Share

Natalie Malover, Wilmette Gymnastics
Personal Bests
LevelVault BarsBeamFloorAA
48.9509.350 8.1508.05033.525
58.8007.650 7.0006.37529.825
XB9.0509.325 9.0508.35035.275
Meet Scores
Date Meet Team Session Level Division Vault Bars Beam Floor AA
2020-02-21 Kinetic Classic Wilmette Gymnastics 03 5 Older 8.800 49T 7.650 65 7.000 68 6.375 69 29.825 66
2020-01-24 Uga Invitational Wilmette Gymnastics B3 4 Jr C 8.950 2 9.100 5 7.975 9 7.100 12 33.125 7
2019-12-20 2019 Women's Hawaiian Pineapple Classic Wilmette Gymnastics 7A 4 Ages 12+ 8.275 9 8.475 10T 7.900 10 8.025 10 32.675 10
2019-12-06 Ultimate Wish Classic Wilmette Gymnastics 7 4 Sr C 8.325 4 8.575 7 8.000 9T 7.950 9 32.850 9
2019-03-22 Illinois Gymnastics State Championships Wilmette Gymnastics 10 4 Sr F 8.800 13T 9.350 8T 7.400 24 7.350 24 32.900 24
2019-02-15 Big ClassicBIG CLASSIC Wilmette Gymnastics 5A 4 Child E 8.400 6 8.775 5 7.650 13 7.725 11 32.550 10
2019-02-01 St. Valentines Classic Wilmette Gymnastics 4A 4 12+ yrs. 8.700 3 9.175 3 7.600 8 8.050 9 33.525 7
2019-01-25 UGA Invitational Wilmette Gymnastics B06 4 Jr C 8.450 6 9.200 3T 8.150 11 7.100 12 32.900 8
2018-12-14 Hawaiian Pineapple Classic Wilmette Gymnastics 9B 4 Ages11+ 8.500 7T 8.600 10 7.300 18 5.500 17 29.900 15
2018-11-30 Ultimate Wish Classic Wilmette Gymnastics 3 4 SR B 8.300 13 9.200 7T 7.900 17 6.850 20 32.250 18
2018-11-17 Paul Hamm Thanksgiving Class WOMENS Wilmette Gymnastics 6 4 Older 8.400 18 8.675 16 6.900 29T 7.250 29 31.225 25
2018-11-03 Phyllis Matras Invite Wilmette Gymnastics All 4 All 8.950 13 8.375 38 7.250 68 7.250 74 31.825 54
2018-02-16 Big Classic Wilmette Gymnastics 10B 4 Child D 8.125 14 8.550 11 7.650 13 7.200 14 31.525 14
2018-01-26 2018 UGA Classic Wilmette Gymnastics B5 4 Senior 7.950 14T 7.450 10 7.250 15 7.100 15 29.750 15
2017-12-14 2017 Women's Hawaiian Pineapple Classic Wilmette Gymnastics 6A 4 Ages12+ 7.950 15 7.750 17 7.150 19 4.800 21 27.650 21
2017-12-01 Ultimate Wish Classic Wilmette Gymnastics 12 4 Sr B 8.350 17T 7.450 19 6.600 19 5.400 19 27.800 19
2017-11-16 Paul Hamm Thanksgiving Classic - Women Wilmette Gymnastics 6 4 Older 8.250 17T 7.250 23T 7.100 23 6.050 23 28.650 23
2017-11-04 Phyllis Matras Invite Wilmette Gymnastics 4 Sr C 8.300 10 8.000 7T 5.100 11 6.650 11 28.050 11
2017-04-21 2017 Illinois Xcel State Championships Dreams Gymnastics Club Inc. 9 XB Sr 9.050 24T 9.200 16T 8.000 33 8.350 31T 34.600 33
2017-03-10 Lucky Invitational Dreams Gymnastics Club Inc. B04 XB Sr B 8.675 15 9.325 10T 9.050 10T 8.225 17 35.275 17
2017-02-03 St. Valentines Classic Womens Dreams Gymnastics Club Inc. 4B XB 10+ yrs. 8.850 6T 9.275 3 7.850 18 8.150 19 34.125 16T
Get your scores on
a t-shirt, pin, or hoodie

www.lazysuits.com